Time;durP1;ratioP1;P1;durP2;ratioP2;P2;SDS_P1;SDS_P2;PMS_P1;PMS_P2;Temp;Humidity;BMP_temperature;BMP_pressure;BME280_temperature;BME280_humidity;BME280_pressure;Samples;Min_cycle;Max_cycle;Signal;HPM_P1;HPM_P2
2023/07/18 10:20:58;;;;;;;4.80;3.30;;;;;;;30.00;49.19;97602.41;104492;1275;97065;-79
2023/07/18 10:23:42;;;;;;;3.80;3.00;;;;;;;30.11;47.96;97601.29;107044;1249;100779;-76
2023/07/18 10:26:09;;;;;;;3.70;3.30;;;;;;;30.31;48.07;97599.96;106487;1248;100777;-82
2023/07/18 10:28:43;;;;;;;5.20;3.10;;;;;;;30.43;47.20;97595.92;106899;1262;95841;-79
2023/07/18 10:31:26;;;;;;;4.60;3.50;;;;;;;30.47;47.40;97592.11;106856;1251;96554;-80
2023/07/18 10:34:09;;;;;;;6.50;3.30;;;;;;;30.68;46.76;97593.98;106912;1250;95856;-79
2023/07/18 10:36:37;;;;;;;3.60;2.80;;;;;;;30.78;46.87;97593.77;106390;1255;99411;-78
2023/07/18 10:39:12;;;;;;;3.60;2.80;;;;;;;30.86;48.17;97587.80;107048;1247;99163;-80
2023/07/18 10:41:43;;;;;;;6.90;2.90;;;;;;;30.76;47.23;97586.46;106597;1248;98671;-79
2023/07/18 10:44:13;;;;;;;5.80;3.30;;;;;;;30.81;46.95;97582.98;107156;1252;96141;-79
2023/07/18 10:46:40;;;;;;;5.90;3.30;;;;;;;30.74;46.79;97576.48;106955;1251;95795;-79
2023/07/18 10:49:07;;;;;;;3.70;2.80;;;;;;;30.66;46.62;97571.11;106284;1262;95973;-79
2023/07/18 10:51:34;;;;;;;5.70;2.90;;;;;;;30.70;46.80;97568.60;107103;1248;95918;-81
2023/07/18 10:54:02;;;;;;;4.80;2.80;;;;;;;30.84;45.85;97563.30;106948;1250;96814;-78
2023/07/18 10:56:29;;;;;;;4.90;2.80;;;;;;;30.84;46.33;97559.91;107029;1250;96028;-80
2023/07/18 10:59:15;;;;;;;3.40;3.00;;;;;;;30.86;46.42;97556.20;108029;1239;96146;-80
2023/07/18 11:01:48;;;;;;;2.70;2.50;;;;;;;30.87;46.96;97553.21;107489;1245;99851;-79
2023/07/18 11:04:38;;;;;;;5.30;2.80;;;;;;;30.92;46.02;97546.21;106787;1260;100101;-78
2023/07/18 11:07:35;;;;;;;5.40;3.00;;;;;;;31.01;45.69;97540.52;106689;1263;98835;-79
2023/07/18 11:10:14;;;;;;;6.30;3.20;;;;;;;30.93;45.19;97534.34;106283;1253;95878;-81
2023/07/18 11:13:21;;;;;;;6.30;3.50;;;;;;;30.85;46.77;97531.86;105418;1265;96297;-79
2023/07/18 11:15:57;;;;;;;8.30;2.70;;;;;;;30.77;45.92;97532.28;105764;1257;100232;-81
2023/07/18 11:18:33;;;;;;;6.80;3.00;;;;;;;30.87;45.22;97528.66;105757;1257;100110;-85
2023/07/18 11:21:20;;;;;;;3.90;3.40;;;;;;;30.93;45.14;97524.14;105756;1256;98955;-79
2023/07/18 11:24:09;;;;;;;4.80;2.90;;;;;;;30.96;45.55;97524.58;105968;1259;96154;-81
2023/07/18 11:27:37;;;;;;;5.00;3.20;;;;;;;30.98;45.19;97523.21;105587;1258;96155;-82
2023/07/18 11:30:08;;;;;;;4.60;3.30;;;;;;;30.82;44.37;97526.66;104836;1268;100915;-78
2023/07/18 11:32:45;;;;;;;9.50;3.10;;;;;;;30.67;44.05;97528.48;104980;1263;101385;-76
2023/07/18 13:54:16;;;;;;;6.30;3.10;;;;;;;28.81;42.69;97403.40;105370;1262;95896;-85
2023/07/18 13:56:45;;;;;;;5.30;2.80;;;;;;;28.69;42.47;97400.36;106305;1254;98263;-80
2023/07/18 13:59:32;;;;;;;5.10;2.70;;;;;;;28.60;42.47;97392.98;105633;1263;100269;-81
2023/07/18 14:02:13;;;;;;;5.50;2.80;;;;;;;28.77;43.08;97387.16;105221;1264;97765;-81
2023/07/18 14:04:59;;;;;;;4.20;2.60;;;;;;;29.03;42.84;97388.23;104956;1264;96043;-77
2023/07/18 14:07:46;;;;;;;3.90;2.60;;;;;;;29.08;42.48;97383.63;104885;1270;96060;-81
2023/07/18 14:10:41;;;;;;;6.40;3.00;;;;;;;29.11;41.95;97375.65;104853;1270;100324;-81
2023/07/18 14:13:41;;;;;;;3.70;2.50;;;;;;;29.19;41.35;97361.77;104661;1269;100536;-81
2023/07/18 14:16:31;;;;;;;4.20;3.00;;;;;;;29.28;41.53;97354.46;105034;1269;98513;-81
2023/07/18 14:19:20;;;;;;;3.00;2.70;;;;;;;29.33;41.39;97347.67;104695;1272;95977;-79
2023/07/18 14:22:18;;;;;;;3.80;2.70;;;;;;;29.48;41.30;97350.63;104448;1274;97092;-81
2023/07/18 14:25:08;;;;;;;5.50;2.80;;;;;;;29.53;40.22;97355.13;104387;1277;100090;-80
2023/07/18 14:27:53;;;;;;;4.90;2.90;;;;;;;29.53;40.38;97343.58;104256;1279;100470;-79
2023/07/18 14:30:43;;;;;;;7.90;2.70;;;;;;;29.50;40.60;97337.44;104410;1274;98982;-81
2023/07/18 14:33:13;;;;;;;5.90;2.70;;;;;;;29.56;41.25;97332.20;104566;1267;95879;-77
2023/07/18 14:35:43;;;;;;;4.00;2.70;;;;;;;29.57;41.09;97330.66;104773;1265;96871;-77
2023/07/18 14:38:10;;;;;;;2.90;2.40;;;;;;;29.51;40.97;97330.66;104903;1265;99362;-77
2023/07/18 14:40:36;;;;;;;7.70;2.90;;;;;;;29.42;40.75;97330.02;104855;1268;96084;-78
2023/07/18 14:43:10;;;;;;;3.80;2.80;;;;;;;29.24;40.17;97322.37;104960;1268;96068;-78
2023/07/18 14:45:37;;;;;;;8.20;6.00;;;;;;;29.04;40.85;97328.27;105700;1260;95970;-75
2023/07/18 14:48:06;;;;;;;6.40;3.30;;;;;;;28.73;40.73;97332.13;105899;1257;96787;-77
2023/07/18 14:50:32;;;;;;;5.90;2.90;;;;;;;28.66;41.21;97340.86;105897;1257;96781;-78
2023/07/18 14:52:59;;;;;;;3.00;2.50;;;;;;;28.78;40.90;97342.95;105871;1268;95943;-78
2023/07/18 14:55:25;;;;;;;6.50;2.50;;;;;;;28.96;40.78;97338.10;106174;1257;95877;-77
2023/07/18 14:57:51;;;;;;;5.70;2.80;;;;;;;29.02;40.89;97340.11;106645;1245;97029;-77
2023/07/18 15:00:19;;;;;;;4.20;2.70;;;;;;;29.12;41.18;97346.13;106969;1250;99540;-78
2023/07/18 15:03:06;;;;;;;5.10;2.80;;;;;;;29.26;40.94;97342.83;107087;1248;101417;-80
2023/07/18 15:06:10;;;;;;;3.90;2.60;;;;;;;29.18;40.81;97334.77;106838;1245;98880;-78
2023/07/18 15:09:05;;;;;;;3.40;2.50;;;;;;;29.06;40.22;97325.02;106976;1245;95896;-79
2023/07/18 15:11:48;;;;;;;3.80;2.70;;;;;;;29.07;40.36;97324.11;106161;1256;96075;-80
2023/07/18 15:14:23;;;;;;;4.80;2.70;;;;;;;29.09;40.84;97328.77;106113;1258;99756;-81
2023/07/18 15:17:00;;;;;;;3.10;2.40;;;;;;;29.01;40.63;97329.33;106167;1253;100151;-77
2023/07/18 15:19:44;;;;;;;5.00;2.70;;;;;;;29.09;40.16;97322.44;106186;1254;98939;-78
2023/07/18 15:22:31;;;;;;;3.20;2.60;;;;;;;29.15;40.53;97313.05;106095;1257;95952;-80
2023/07/18 15:25:10;;;;;;;6.30;2.60;;;;;;;29.00;40.76;97312.23;106168;1255;96117;-79
2023/07/18 15:27:51;;;;;;;4.00;2.60;;;;;;;28.83;40.74;97311.02;105864;1257;100258;-79
2023/07/18 15:30:23;;;;;;;5.10;3.00;;;;;;;28.61;40.06;97313.43;105895;1269;100046;-78
2023/07/18 15:32:49;;;;;;;4.80;2.70;;;;;;;28.48;39.91;97307.61;105805;1260;98433;-75
2023/07/18 15:35:16;;;;;;;4.10;2.80;;;;;;;28.34;40.41;97297.19;105898;1260;96062;-74
2023/07/18 15:37:42;;;;;;;3.70;2.80;;;;;;;28.36;39.72;97293.08;105986;1259;95968;-74
2023/07/18 15:40:09;;;;;;;3.60;2.60;;;;;;;28.40;40.00;97297.29;106068;1254;96838;-76
2023/07/18 15:42:35;;;;;;;4.80;3.00;;;;;;;28.31;39.81;97299.41;105961;1258;98869;-76
2023/07/18 15:45:02;;;;;;;5.20;2.30;;;;;;;28.35;40.02;97302.63;106026;1259;97097;-74
2023/07/18 15:47:28;;;;;;;4.30;2.60;;;;;;;28.13;39.43;97298.59;106029;1258;96666;-76
2023/07/18 15:49:55;;;;;;;3.60;2.50;;;;;;;28.10;39.44;97296.80;106901;1252;96373;-78
2023/07/18 15:52:22;;;;;;;3.80;2.50;;;;;;;28.09;39.73;97294.60;106934;1250;99722;-79
2023/07/18 15:54:48;;;;;;;5.10;2.50;;;;;;;27.96;40.03;97288.53;107151;1251;96088;-78
2023/07/18 15:57:14;;;;;;;4.20;2.50;;;;;;;27.96;39.78;97282.21;107132;1243;96335;-78
2023/07/18 15:59:41;;;;;;;6.00;2.90;;;;;;;28.03;39.77;97276.32;107520;1240;97135;-78
2023/07/18 16:02:37;;;;;;;5.30;2.80;;;;;;;27.93;40.38;97271.77;107594;1244;96483;-79
2023/07/18 16:05:25;;;;;;;3.20;2.90;;;;;;;27.63;40.32;97263.13;107272;1248;96777;-76
2023/07/18 16:08:07;;;;;;;4.00;2.60;;;;;;;27.41;40.28;97255.23;106791;1251;96554;-74
2023/07/18 16:11:01;;;;;;;5.80;3.00;;;;;;;27.33;40.53;97250.87;106926;1254;99487;-76
2023/07/18 16:14:07;;;;;;;6.10;2.80;;;;;;;27.30;40.56;97245.77;106535;1256;99964;-74
2023/07/18 16:17:04;;;;;;;5.40;2.90;;;;;;;27.17;40.57;97238.55;105707;1257;97618;-74
2023/07/18 16:19:47;;;;;;;3.20;2.60;;;;;;;27.04;40.99;97232.42;105645;1263;97109;-79
2023/07/18 16:22:32;;;;;;;3.70;2.90;;;;;;;27.06;40.51;97230.18;105754;1263;96237;-79
2023/07/18 16:25:24;;;;;;;4.20;2.90;;;;;;;27.14;40.65;97228.84;105784;1266;99360;-78
2023/07/18 16:28:05;;;;;;;6.00;2.80;;;;;;;26.97;41.05;97221.80;105518;1264;99980;-79
2023/07/18 16:31:02;;;;;;;3.60;3.00;;;;;;;26.90;40.82;97217.50;105622;1264;99084;-80
2023/07/18 16:33:29;;;;;;;5.40;2.80;;;;;;;26.81;41.12;97213.88;105381;1265;96830;-79
2023/07/18 16:35:55;;;;;;;4.90;2.20;;;;;;;26.68;41.55;97216.02;105450;1264;96187;-78
2023/07/18 16:38:21;;;;;;;5.90;3.20;;;;;;;26.59;41.03;97215.83;105189;1267;96350;-78
2023/07/18 16:40:48;;;;;;;3.80;2.60;;;;;;;26.54;41.59;97219.67;105429;1258;96091;-78
2023/07/18 16:43:14;;;;;;;3.90;2.80;;;;;;;26.40;42.13;97219.02;105570;1262;95865;-78
2023/07/18 16:45:43;;;;;;;4.80;3.00;;;;;;;26.20;42.25;97220.05;105660;1271;95911;-79
2023/07/18 16:48:09;;;;;;;4.40;2.60;;;;;;;26.10;43.33;97214.77;105724;1257;100141;-79
2023/07/18 16:50:36;;;;;;;7.30;3.10;;;;;;;25.94;44.06;97223.39;105944;1260;96056;-79
2023/07/18 16:53:03;;;;;;;5.40;3.10;;;;;;;25.77;44.54;97226.28;106366;1256;96080;-78
2023/07/18 16:55:29;;;;;;;5.10;3.00;;;;;;;25.68;44.83;97229.71;106522;1255;96034;-81
2023/07/18 16:57:55;;;;;;;4.20;3.00;;;;;;;25.60;45.74;97236.02;106145;1253;99979;-79
2023/07/18 17:00:22;;;;;;;7.40;3.20;;;;;;;25.59;46.11;97243.13;106429;1254;96178;-78
2023/07/18 17:03:07;;;;;;;9.10;3.50;;;;;;;25.50;45.96;97245.07;106738;1251;96006;-79
2023/07/18 17:05:36;;;;;;;14.80;4.20;;;;;;;25.34;46.33;97250.07;106580;1251;96825;-81
2023/07/18 17:08:03;;;;;;;10.40;5.20;;;;;;;25.32;46.46;97258.08;106538;1250;96373;-79
2023/07/18 18:13:14;;;;;;;23.40;13.50;;;;;;;23.99;51.29;97246.58;102262;1292;642749;-84
2023/07/18 18:16:23;;;;;;;20.10;13.30;;;;;;;23.77;51.26;97223.02;99722;1280;5360012;-87
2023/07/18 18:19:32;;;;;;;18.00;11.70;;;;;;;23.61;51.52;97226.38;103026;1297;99577;-85
2023/07/18 18:22:44;;;;;;;11.70;7.50;;;;;;;23.38;51.50;97231.92;102540;1289;100450;-84
2023/07/18 19:28:37;;;;;;;9.10;5.30;;;;;;;20.45;57.24;97249.39;105630;1265;99947;-79
2023/07/18 19:31:45;;;;;;;10.60;6.20;;;;;;;20.43;57.64;97253.77;106250;1258;100363;-78
2023/07/18 19:34:52;;;;;;;13.20;6.00;;;;;;;20.36;58.02;97253.13;106771;1248;98894;-80
2023/07/18 19:37:57;;;;;;;8.90;6.00;;;;;;;20.26;57.95;97250.13;106070;1256;96137;-80
2023/07/18 19:40:53;;;;;;;9.30;6.20;;;;;;;20.21;58.02;97245.63;106140;1257;96920;-80
2023/07/18 19:43:40;;;;;;;11.50;6.90;;;;;;;20.15;58.24;97238.58;106184;1254;99763;-80
2023/07/18 19:46:46;;;;;;;10.90;6.10;;;;;;;20.06;58.15;97235.58;106207;1257;100304;-78
2023/07/18 19:49:34;;;;;;;13.10;6.70;;;;;;;19.83;58.06;97237.55;105579;1263;98902;-78
2023/07/18 19:52:34;;;;;;;13.00;7.70;;;;;;;19.56;58.41;97236.08;105326;1264;97284;-78
2023/07/18 19:55:34;;;;;;;18.10;11.40;;;;;;;19.41;58.92;97231.71;105679;1264;95976;-76
2023/07/18 19:58:01;;;;;;;15.50;13.40;;;;;;;19.36;59.28;97229.89;108621;1260;99952;-82
2023/07/18 20:00:27;;;;;;;18.00;11.70;;;;;;;19.37;59.49;97229.40;105712;1265;97553;-84
2023/07/18 20:02:54;;;;;;;14.00;10.10;;;;;;;19.41;59.72;97228.16;105192;1265;97198;-84
2023/07/18 20:05:20;;;;;;;11.70;7.60;;;;;;;19.41;59.84;97223.18;105387;1266;96308;-83
2023/07/18 20:07:46;;;;;;;9.70;6.60;;;;;;;19.36;59.78;97215.71;105413;1266;97047;-81
2023/07/18 20:10:13;;;;;;;10.10;6.20;;;;;;;19.32;59.91;97209.42;105688;1257;99925;-82
2023/07/18 20:12:39;;;;;;;9.50;6.10;;;;;;;19.27;60.01;97207.45;106386;1253;97325;-80
2023/07/18 20:15:06;;;;;;;9.40;5.70;;;;;;;19.20;60.15;97202.45;106825;1257;96169;-82
2023/07/18 20:17:32;;;;;;;11.00;6.60;;;;;;;19.13;60.31;97196.85;107286;1243;96805;-83
2023/07/18 20:19:59;;;;;;;13.00;6.30;;;;;;;19.08;60.47;97198.31;107206;1248;100225;-83
2023/07/18 20:22:26;;;;;;;12.00;6.30;;;;;;;19.00;60.80;97199.35;107260;1247;96347;-83
2023/07/18 20:24:52;;;;;;;9.10;6.10;;;;;;;18.90;60.93;97195.98;107294;1253;97244;-83
2023/07/18 20:27:19;;;;;;;10.00;5.60;;;;;;;18.85;61.04;97188.63;107473;1241;96012;-85
2023/07/18 20:29:45;;;;;;;9.00;5.40;;;;;;;18.78;61.29;97186.77;107689;1239;96706;-83
2023/07/18 20:32:12;;;;;;;8.40;4.90;;;;;;;18.71;61.14;97194.39;107518;1240;100015;-75
2023/07/18 20:35:18;;;;;;;6.80;5.30;;;;;;;18.64;61.30;97197.48;107551;1239;96065;-78
2023/07/18 20:38:25;;;;;;;21.40;7.00;;;;;;;18.47;61.58;97194.81;106497;1254;96992;-78
2023/07/18 20:41:32;;;;;;;12.10;5.10;;;;;;;18.41;62.17;97192.11;105350;1266;99863;-79
2023/07/18 20:44:43;;;;;;;8.90;4.90;;;;;;;18.38;62.23;97187.83;104878;1272;100195;-77
2023/07/18 21:13:44;;;;;;;10.20;5.50;;;;;;;18.37;62.70;97184.16;102422;1306;640050;-71
2023/07/18 21:16:13;;;;;;;7.90;5.30;;;;;;;18.36;62.47;97182.26;103931;1270;97341;-75
2023/07/18 21:18:40;;;;;;;9.20;5.00;;;;;;;18.25;62.66;97179.20;103917;1268;97207;-74
2023/07/18 21:21:08;;;;;;;7.90;4.90;;;;;;;18.16;62.84;97177.19;104427;1267;98479;-74
2023/07/18 21:35:10;;;;;;;7.30;4.70;;;;;;;18.21;62.98;97181.58;105022;1263;642384;-79
2023/07/18 21:38:06;;;;;;;11.00;4.70;;;;;;;18.10;62.90;97177.20;102670;1255;5388563;-78
2023/07/18 21:41:13;;;;;;;7.00;4.50;;;;;;;17.93;63.23;97170.55;106475;1254;98562;-77
2023/07/18 21:44:20;;;;;;;8.50;4.70;;;;;;;17.77;63.16;97167.23;106491;1254;101275;-78
2023/07/18 21:47:27;;;;;;;9.00;4.60;;;;;;;17.62;63.48;97165.25;105606;1259;99039;-77
2023/07/18 21:50:35;;;;;;;8.80;4.90;;;;;;;17.38;63.85;97158.92;104778;1266;96038;-77
2023/07/18 21:53:42;;;;;;;7.60;4.20;;;;;;;17.21;64.32;97158.08;104921;1265;95988;-75
2023/07/18 22:26:17;;;;;;;8.10;4.00;;;;;;;17.18;64.89;97141.25;103918;1277;642325;-74
2023/07/18 22:29:24;;;;;;;9.30;4.30;;;;;;;17.03;64.97;97137.90;102699;1250;5391080;-75
2023/07/18 22:32:31;;;;;;;7.70;3.70;;;;;;;16.83;65.45;97137.55;105581;1254;98641;-79
2023/07/18 22:35:38;;;;;;;5.00;4.00;;;;;;;16.72;65.75;97137.88;104892;1266;100347;-79
2023/07/18 23:07:25;;;;;;;8.90;4.20;;;;;;;16.37;66.43;97093.27;104122;1275;643872;-79
2023/07/18 23:10:32;;;;;;;8.20;4.10;;;;;;;16.31;66.89;97087.64;102003;1259;5400140;-80
2023/07/18 23:13:39;;;;;;;6.50;4.20;;;;;;;16.19;67.12;97084.84;104854;1267;98031;-78
2023/07/18 23:16:46;;;;;;;8.80;3.90;;;;;;;16.09;67.21;97082.54;104461;1275;100001;-79
2023/07/18 23:47:30;;;;;;;6.00;3.40;;;;;;;16.11;67.19;97015.63;100641;1282;5118586;-74
2023/07/18 23:50:37;;;;;;;5.30;3.80;;;;;;;15.98;67.33;97020.33;105801;1257;98466;-78
2023/07/18 23:53:28;;;;;;;8.20;4.40;;;;;;;15.84;67.59;97029.38;105143;1266;100219;-78
2023/07/18 23:56:35;;;;;;;6.20;3.90;;;;;;;15.74;67.77;97029.95;105042;1267;98941;-80
